Time;durP1;ratioP1;P1;durP2;ratioP2;P2;SDS_P1;SDS_P2;PMS_P1;PMS_P2;Temp;Humidity;BMP_temperature;BMP_pressure;BME280_temperature;BME280_humidity;BME280_pressure;Samples;Min_cycle;Max_cycle;Signal;HPM_P1;HPM_P2
2020/12/17 00:01:58;;;;;;;214.85;105.25;;;;;;;0.30;85.37;98869.61;1773281;80;21631;-76
2020/12/17 00:04:26;;;;;;;218.25;110.32;;;;;;;0.33;85.19;98869.20;1773195;79;21139;-78
2020/12/17 00:06:51;;;;;;;226.82;115.08;;;;;;;0.28;85.77;98867.96;1773269;80;21395;-77
2020/12/17 00:09:17;;;;;;;222.63;113.52;;;;;;;0.31;85.83;98868.08;1773299;80;20961;-78
2020/12/17 00:11:43;;;;;;;206.15;109.83;;;;;;;0.38;85.90;98859.63;1770462;79;21151;-77
2020/12/17 00:14:09;;;;;;;204.55;105.78;;;;;;;0.40;85.99;98862.09;1773149;81;21013;-77
2020/12/17 00:16:35;;;;;;;199.07;104.50;;;;;;;0.39;85.99;98856.45;1773266;79;21111;-78
2020/12/17 00:19:01;;;;;;;204.43;105.67;;;;;;;0.39;85.62;98851.11;1773200;81;21175;-77
2020/12/17 00:21:27;;;;;;;211.28;112.55;;;;;;;0.39;85.57;98853.78;1773295;79;21131;-78
2020/12/17 00:23:53;;;;;;;216.75;111.42;;;;;;;0.40;85.74;98856.25;1773190;81;20893;-78
2020/12/17 00:26:19;;;;;;;206.78;107.07;;;;;;;0.39;85.47;98858.60;1773251;79;20988;-78
2020/12/17 00:28:45;;;;;;;207.47;105.27;;;;;;;0.40;85.33;98854.91;1773306;81;20988;-78
2020/12/17 00:31:10;;;;;;;181.55;98.62;;;;;;;0.37;85.02;98847.83;1773293;79;21366;-78
2020/12/17 00:33:36;;;;;;;184.67;96.57;;;;;;;0.34;84.89;98851.68;1773179;81;20866;-78
2020/12/17 00:36:02;;;;;;;183.68;98.70;;;;;;;0.31;84.82;98845.41;1773273;79;20885;-78
2020/12/17 00:38:28;;;;;;;229.32;116.88;;;;;;;0.31;85.17;98845.92;1773270;80;20941;-78
2020/12/17 00:40:54;;;;;;;226.67;121.55;;;;;;;0.31;85.33;98847.26;1773270;79;21116;-78
2020/12/17 00:43:19;;;;;;;211.45;107.90;;;;;;;0.30;85.52;98846.95;1773198;80;21252;-78
2020/12/17 00:45:45;;;;;;;193.00;108.22;;;;;;;0.30;85.56;98846.95;1773196;79;21039;-77
2020/12/17 00:48:11;;;;;;;205.47;109.27;;;;;;;0.26;85.47;98843.85;1773316;80;20961;-78
2020/12/17 00:50:37;;;;;;;196.80;101.95;;;;;;;0.21;85.39;98848.42;1773104;79;21491;-78
2020/12/17 00:53:03;;;;;;;205.92;104.53;;;;;;;0.18;85.68;98847.99;1773292;80;20969;-77
2020/12/17 00:55:28;;;;;;;191.82;99.05;;;;;;;0.16;85.98;98851.34;1773201;79;21446;-77
2020/12/17 00:57:55;;;;;;;187.37;92.33;;;;;;;0.13;85.74;98849.89;1773250;80;21769;-78
2020/12/17 01:00:21;;;;;;;172.90;89.30;;;;;;;0.09;85.62;98844.64;1773207;79;21178;-78
2020/12/17 01:02:47;;;;;;;185.18;95.60;;;;;;;0.07;85.75;98845.83;1773242;80;22058;-77
2020/12/17 01:05:13;;;;;;;165.15;86.78;;;;;;;0.08;85.57;98850.96;1773195;79;21139;-78
2020/12/17 01:07:38;;;;;;;176.20;92.45;;;;;;;0.11;85.54;98855.11;1770591;80;21898;-77
2020/12/17 01:10:04;;;;;;;174.85;92.53;;;;;;;0.14;85.79;98850.71;1773184;79;21016;-78
2020/12/17 01:12:31;;;;;;;181.30;96.25;;;;;;;0.18;85.85;98848.81;1773287;80;21178;-78
2020/12/17 01:14:56;;;;;;;186.88;97.12;;;;;;;0.21;85.79;98852.92;1744860;81;21500;-78
2020/12/17 01:17:22;;;;;;;186.73;101.18;;;;;;;0.21;85.85;98851.08;1773312;80;20901;-78
2020/12/17 01:19:48;;;;;;;186.65;99.30;;;;;;;0.22;85.77;98846.58;1773142;79;21032;-78
2020/12/17 01:22:14;;;;;;;186.20;98.75;;;;;;;0.30;85.82;98844.28;1773245;80;20996;-77
2020/12/17 01:24:40;;;;;;;176.72;97.60;;;;;;;0.33;85.73;98847.37;1773226;79;21474;-77
2020/12/17 01:27:06;;;;;;;172.40;92.70;;;;;;;0.34;85.42;98846.34;1773184;81;20984;-78
2020/12/17 01:29:32;;;;;;;166.07;83.75;;;;;;;0.31;85.48;98840.08;1773226;79;21108;-77
2020/12/17 01:31:59;;;;;;;169.13;85.35;;;;;;;0.33;85.42;98843.37;1773251;80;21129;-77
2020/12/17 01:34:24;;;;;;;139.70;75.85;;;;;;;0.31;85.40;98840.08;1773054;79;21151;-78
2020/12/17 01:36:53;;;;;;;138.60;75.57;;;;;;;0.31;85.36;98841.92;1773182;81;21570;-78
2020/12/17 01:39:20;;;;;;;153.45;83.52;;;;;;;0.31;85.42;98845.41;1773084;81;21047;-78
2020/12/17 01:41:46;;;;;;;161.40;87.82;;;;;;;0.36;85.49;98843.52;1770573;79;21182;-77
2020/12/17 01:44:12;;;;;;;183.10;92.30;;;;;;;0.40;85.49;98850.91;1773255;80;21249;-77
2020/12/17 01:46:37;;;;;;;171.15;87.02;;;;;;;0.39;85.25;98842.60;1773142;79;21523;-78
2020/12/17 01:49:03;;;;;;;161.20;81.17;;;;;;;0.43;85.32;98844.39;1773134;80;21023;-77
2020/12/17 01:51:29;;;;;;;162.03;84.00;;;;;;;0.37;85.02;98844.64;1773218;79;20890;-77
2020/12/17 01:53:55;;;;;;;163.12;89.25;;;;;;;0.26;84.74;98833.19;1773122;81;20929;-78
2020/12/17 01:56:24;;;;;;;159.30;86.40;;;;;;;0.17;85.51;98835.66;1773177;79;21188;-78
2020/12/17 01:59:13;;;;;;;166.32;85.07;;;;;;;0.16;84.89;98836.67;1773238;81;21131;-78
2020/12/17 02:01:46;;;;;;;164.67;83.17;;;;;;;0.09;85.17;98827.31;1773211;79;21071;-76
2020/12/17 02:04:12;;;;;;;161.62;88.20;;;;;;;0.07;84.97;98834.66;1773234;80;21052;-77
2020/12/17 02:06:38;;;;;;;180.97;92.60;;;;;;;0.04;85.29;98833.72;1745025;81;21496;-77
2020/12/17 02:09:04;;;;;;;176.15;87.62;;;;;;;0.09;85.47;98835.31;1770434;81;21395;-77
2020/12/17 02:11:30;;;;;;;168.25;84.83;;;;;;;0.14;85.51;98830.21;1770416;79;21019;-77
2020/12/17 02:13:56;;;;;;;167.77;88.72;;;;;;;0.13;85.42;98825.08;1773214;81;20944;-77
2020/12/17 02:16:21;;;;;;;168.72;88.42;;;;;;;0.10;85.36;98824.97;1773201;79;20889;-77
2020/12/17 02:18:52;;;;;;;163.37;83.97;;;;;;;0.09;85.13;98823.83;1773208;80;21070;-77
2020/12/17 02:21:15;;;;;;;149.72;80.55;;;;;;;0.08;84.99;98829.64;1772412;79;21154;-78
2020/12/17 02:23:42;;;;;;;167.85;86.87;;;;;;;0.08;85.07;98829.64;1770578;80;20945;-77
2020/12/17 02:26:08;;;;;;;171.05;84.70;;;;;;;0.09;85.05;98831.83;1772862;79;21129;-77
2020/12/17 02:28:34;;;;;;;162.40;81.22;;;;;;;0.06;85.17;98830.34;1773270;81;21011;-77
2020/12/17 02:31:00;;;;;;;160.57;80.15;;;;;;;0.03;84.99;98830.74;1773218;79;20920;-77
2020/12/17 02:33:25;;;;;;;145.68;75.20;;;;;;;-0.06;84.75;98831.39;1773207;81;21055;-78
2020/12/17 02:35:51;;;;;;;142.98;76.20;;;;;;;-0.13;84.76;98831.83;1772997;79;20980;-78
2020/12/17 02:38:17;;;;;;;156.78;80.38;;;;;;;-0.09;85.04;98830.93;1773274;80;21475;-78
2020/12/17 02:40:43;;;;;;;149.65;78.55;;;;;;;-0.08;84.95;98836.09;1773211;79;20996;-78
2020/12/17 02:43:11;;;;;;;154.90;77.25;;;;;;;-0.09;84.87;98839.75;1773267;80;20961;-77
2020/12/17 02:45:51;;;;;;;152.72;79.25;;;;;;;-0.10;85.04;98836.77;1744872;81;21153;-78
2020/12/17 02:48:18;;;;;;;158.27;80.47;;;;;;;-0.13;84.97;98836.34;1770870;80;21119;-77
2020/12/17 02:50:44;;;;;;;152.05;79.00;;;;;;;-0.15;85.08;98837.05;1770600;79;21536;-77
2020/12/17 02:53:10;;;;;;;145.45;78.52;;;;;;;-0.12;85.10;98835.32;1773362;81;21163;-78
2020/12/17 02:55:37;;;;;;;139.85;74.72;;;;;;;-0.11;85.21;98838.30;1773267;79;21481;-78
2020/12/17 02:58:04;;;;;;;157.25;79.75;;;;;;;-0.12;85.32;98829.98;1773358;81;21190;-77
2020/12/17 03:00:29;;;;;;;178.70;85.15;;;;;;;-0.19;85.22;98838.42;1773126;79;21035;-77
2020/12/17 03:02:55;;;;;;;206.70;92.85;;;;;;;-0.22;85.36;98834.31;1770666;80;21888;-77
2020/12/17 03:05:21;;;;;;;184.10;87.75;;;;;;;-0.22;85.13;98836.16;1773239;79;20905;-77
2020/12/17 03:07:47;;;;;;;177.90;84.10;;;;;;;-0.24;85.45;98832.86;1773410;80;20917;-78
2020/12/17 03:10:13;;;;;;;175.25;87.08;;;;;;;-0.31;84.99;98828.29;1773324;79;21960;-77
2020/12/17 03:12:43;;;;;;;170.80;84.83;;;;;;;-0.39;85.30;98825.75;1773275;80;21024;-77
2020/12/17 03:15:10;;;;;;;167.35;85.77;;;;;;;-0.43;85.36;98830.30;1773231;79;21569;-78
2020/12/17 03:17:36;;;;;;;164.07;81.70;;;;;;;-0.42;85.41;98825.31;1773214;81;21131;-78
2020/12/17 03:20:05;;;;;;;162.10;84.62;;;;;;;-0.44;85.17;98824.66;1773252;79;20997;-77
2020/12/17 03:22:31;;;;;;;163.57;82.47;;;;;;;-0.47;84.96;98821.88;1773251;81;21123;-78
2020/12/17 03:24:57;;;;;;;150.18;75.90;;;;;;;-0.49;85.12;98817.77;1745019;81;21088;-77
2020/12/17 03:27:23;;;;;;;161.82;81.60;;;;;;;-0.54;84.96;98818.83;1773377;80;21619;-78
2020/12/17 03:29:49;;;;;;;168.85;82.05;;;;;;;-0.58;85.33;98814.40;1773241;79;20901;-77
2020/12/17 03:32:15;;;;;;;176.02;90.00;;;;;;;-0.59;85.64;98814.08;1773371;80;21519;-78
2020/12/17 03:34:41;;;;;;;174.50;88.87;;;;;;;-0.55;85.65;98818.52;1773327;79;21308;-77
2020/12/17 03:37:08;;;;;;;183.22;85.75;;;;;;;-0.58;85.61;98818.39;1773294;80;21370;-77
2020/12/17 03:39:35;;;;;;;181.05;90.60;;;;;;;-0.59;85.46;98816.75;1773340;79;21344;-77
2020/12/17 03:42:02;;;;;;;184.57;90.07;;;;;;;-0.57;85.32;98806.22;1773213;81;21167;-77
2020/12/17 03:44:28;;;;;;;169.90;85.25;;;;;;;-0.56;85.45;98811.03;1770529;79;21183;-77
2020/12/17 03:46:54;;;;;;;152.70;80.10;;;;;;;-0.58;85.45;98808.56;1744992;81;21329;-77
2020/12/17 03:49:19;;;;;;;160.90;81.10;;;;;;;-0.59;85.27;98806.09;1744973;81;21081;-78
2020/12/17 03:51:45;;;;;;;162.50;81.60;;;;;;;-0.66;85.26;98799.88;1773336;79;21861;-77
2020/12/17 03:54:11;;;;;;;161.12;80.75;;;;;;;-0.70;85.24;98807.39;1773314;81;21008;-77
2020/12/17 03:56:37;;;;;;;147.20;76.75;;;;;;;-0.70;85.38;98808.72;1773227;79;20925;-78
2020/12/17 03:59:03;;;;;;;146.32;76.40;;;;;;;-0.66;85.65;98810.52;1773390;80;21456;-78
2020/12/17 04:01:28;;;;;;;150.60;77.87;;;;;;;-0.63;85.50;98810.95;1773127;79;20893;-78
2020/12/17 04:03:54;;;;;;;149.53;72.25;;;;;;;-0.63;85.56;98809.63;1773373;80;21839;-78
2020/12/17 04:06:20;;;;;;;145.60;71.85;;;;;;;-0.61;85.38;98808.09;1773251;79;21082;-78
2020/12/17 04:08:46;;;;;;;147.57;72.65;;;;;;;-0.59;85.40;98808.25;1773299;80;20929;-77
2020/12/17 04:11:12;;;;;;;157.88;76.95;;;;;;;-0.54;85.51;98800.19;1773276;79;21211;-77
2020/12/17 04:13:38;;;;;;;145.60;74.58;;;;;;;-0.57;85.39;98802.22;1773293;81;21626;-77
2020/12/17 04:16:04;;;;;;;154.27;74.70;;;;;;;-0.62;85.53;98811.78;1773186;79;21119;-77
2020/12/17 04:18:30;;;;;;;149.70;69.40;;;;;;;-0.70;85.21;98806.06;1773347;81;21114;-78
2020/12/17 04:20:56;;;;;;;146.90;69.47;;;;;;;-0.80;84.96;98806.88;1773192;79;20941;-78
2020/12/17 04:23:22;;;;;;;154.90;77.03;;;;;;;-0.85;85.04;98801.31;1773355;81;21439;-78
2020/12/17 04:25:48;;;;;;;155.32;78.75;;;;;;;-0.88;85.49;98795.84;1772948;79;21076;-78
2020/12/17 04:28:14;;;;;;;176.25;90.20;;;;;;;-1.01;86.60;98799.69;1773375;80;21762;-78
2020/12/17 04:30:40;;;;;;;195.47;95.92;;;;;;;-1.00;86.04;98795.19;1773266;79;20921;-78
2020/12/17 04:33:06;;;;;;;212.55;105.40;;;;;;;-0.99;85.94;98796.84;1773336;80;20925;-77
2020/12/17 04:35:32;;;;;;;165.05;78.62;;;;;;;-1.04;86.16;98796.05;1773324;79;21436;-78
2020/12/17 04:37:57;;;;;;;169.77;84.25;;;;;;;-1.05;85.82;98801.56;1773265;80;21213;-77
2020/12/17 04:40:23;;;;;;;178.15;84.90;;;;;;;-1.10;86.25;98803.98;1770513;79;21023;-77
2020/12/17 04:42:51;;;;;;;163.25;80.07;;;;;;;-1.10;86.29;98801.31;1773015;80;21043;-78
2020/12/17 04:45:19;;;;;;;160.85;80.20;;;;;;;-1.09;86.15;98799.80;1773299;79;21040;-78
2020/12/17 04:47:46;;;;;;;164.07;79.60;;;;;;;-1.06;86.32;98805.23;1744873;81;21346;-77
2020/12/17 04:50:15;;;;;;;167.00;80.95;;;;;;;-1.14;86.62;98801.67;1773245;79;21178;-77
2020/12/17 04:52:41;;;;;;;158.05;82.65;;;;;;;-1.16;86.15;98803.70;1773343;81;25722;-77
2020/12/17 04:55:08;;;;;;;135.30;63.98;;;;;;;-1.18;86.28;98804.90;1773231;79;21043;-77
2020/12/17 04:57:33;;;;;;;123.45;59.70;;;;;;;-1.17;85.90;98803.38;1770548;81;21107;-77
2020/12/17 04:59:59;;;;;;;122.62;64.30;;;;;;;-1.21;85.59;98807.91;1773203;79;21142;-77
2020/12/17 05:02:25;;;;;;;120.30;62.85;;;;;;;-1.27;85.61;98811.33;1744982;81;21007;-77
2020/12/17 05:04:53;;;;;;;128.47;65.60;;;;;;;-1.27;85.73;98807.34;1773274;79;21527;-77
2020/12/17 05:07:22;;;;;;;124.05;63.20;;;;;;;-1.25;85.98;98811.46;1773180;80;21556;-77
2020/12/17 05:09:49;;;;;;;129.27;68.33;;;;;;;-1.25;86.26;98811.46;1773029;79;21231;-78
2020/12/17 05:12:15;;;;;;;118.90;59.67;;;;;;;-1.24;86.35;98820.27;1773269;80;22129;-78
2020/12/17 05:14:41;;;;;;;127.07;61.00;;;;;;;-1.25;85.72;98816.78;1773150;79;21561;-77
2020/12/17 05:17:07;;;;;;;134.52;70.03;;;;;;;-1.29;85.82;98823.97;1773191;80;21057;-78
2020/12/17 05:19:33;;;;;;;137.28;70.90;;;;;;;-1.30;86.12;98830.30;1773250;79;21634;-78
2020/12/17 05:22:00;;;;;;;161.85;82.75;;;;;;;-1.42;86.79;98828.61;1773205;80;20929;-78
2020/12/17 05:24:27;;;;;;;150.45;77.00;;;;;;;-1.39;86.26;98833.55;1772960;79;21167;-77
2020/12/17 05:26:54;;;;;;;153.95;76.72;;;;;;;-1.43;86.07;98832.28;1773199;80;21103;-78
2020/12/17 05:29:20;;;;;;;153.05;73.62;;;;;;;-1.44;85.95;98837.28;1773239;80;21584;-78
2020/12/17 05:31:46;;;;;;;153.32;75.60;;;;;;;-1.50;86.28;98844.14;1744793;81;20877;-78
2020/12/17 05:34:12;;;;;;;152.82;74.15;;;;;;;-1.51;86.17;98844.33;1773286;80;21138;-78
2020/12/17 05:36:41;;;;;;;135.48;67.47;;;;;;;-1.55;86.33;98844.36;1773039;79;21229;-78
2020/12/17 05:39:20;;;;;;;154.65;78.80;;;;;;;-1.57;85.94;98843.72;1773097;81;21124;-78
2020/12/17 05:41:49;;;;;;;158.70;77.82;;;;;;;-1.61;86.29;98843.78;1773271;79;21131;-77
2020/12/17 05:44:29;;;;;;;143.82;71.30;;;;;;;-1.58;86.47;98844.23;1773408;80;21116;-78
2020/12/17 05:46:56;;;;;;;146.60;77.32;;;;;;;-1.56;86.51;98844.04;1773224;80;21151;-78
2020/12/17 05:49:26;;;;;;;153.10;75.90;;;;;;;-1.54;86.05;98842.87;1773200;81;21171;-78
2020/12/17 05:52:21;;;;;;;151.97;81.57;;;;;;;-1.55;85.97;98844.36;1773154;81;21111;-78
2020/12/17 05:54:56;;;;;;;152.72;77.65;;;;;;;-1.50;86.44;98850.80;1773156;79;21223;-78
2020/12/17 05:57:22;;;;;;;134.65;67.80;;;;;;;-1.52;86.25;98850.16;1773300;80;21138;-78
2020/12/17 05:59:56;;;;;;;124.97;67.58;;;;;;;-1.53;86.02;98845.03;1773068;79;20961;-77
2020/12/17 06:02:31;;;;;;;118.67;65.45;;;;;;;-1.53;86.05;98853.00;1773068;81;21580;-77
2020/12/17 06:05:09;;;;;;;117.62;58.52;;;;;;;-1.57;86.12;98858.34;1772451;79;21079;-78
2020/12/17 06:07:48;;;;;;;126.72;63.28;;;;;;;-1.57;85.71;98856.51;1773448;81;21147;-77
2020/12/17 06:10:30;;;;;;;;;;;;;;;-1.63;85.61;98850.58;1775856;79;21107;-77
2020/12/17 06:12:58;;;;;;;128.30;58.30;;;;;;;-1.67;86.26;98854.62;1773204;81;20337;-77
2020/12/17 06:15:27;;;;;;;126.02;65.47;;;;;;;-1.71;86.00;98850.66;1773249;79;21345;-77
2020/12/17 06:18:00;;;;;;;133.45;67.42;;;;;;;-1.65;86.03;98859.75;1773022;81;25096;-78
2020/12/17 06:20:29;;;;;;;125.27;63.17;;;;;;;-1.69;86.18;98855.82;1773341;79;21167;-79
2020/12/17 06:23:01;;;;;;;136.43;72.65;;;;;;;-1.79;86.63;98858.23;1773254;81;21154;-79
2020/12/17 06:25:29;;;;;;;138.77;68.52;;;;;;;-1.79;86.14;98858.23;1773225;79;21111;-77
2020/12/17 06:27:54;;;;;;;132.95;67.53;;;;;;;-1.79;85.91;98864.87;1772975;81;21272;-79
2020/12/17 06:30:28;;;;;;;128.97;65.83;;;;;;;-1.80;85.96;98863.20;1773079;79;20929;-77
2020/12/17 06:32:55;;;;;;;142.15;69.30;;;;;;;-1.83;86.06;98865.40;1770526;80;21591;-79
2020/12/17 06:35:59;;;;;;;141.57;65.22;;;;;;;-1.80;86.08;98871.67;1772758;79;38625;-78
2020/12/17 06:38:26;;;;;;;131.22;69.58;;;;;;;-1.79;85.73;98878.16;1771125;81;21144;-78
2020/12/17 06:40:52;;;;;;;142.10;69.95;;;;;;;-1.83;85.85;98883.49;1773180;79;22038;-78
2020/12/17 06:43:38;;;;;;;140.50;71.77;;;;;;;-1.89;85.93;98881.55;1770453;81;21084;-77
2020/12/17 06:46:04;;;;;;;146.28;71.47;;;;;;;-1.88;85.84;98888.54;1770543;79;21111;-79
2020/12/17 06:48:40;;;;;;;136.92;64.72;;;;;;;-1.84;85.77;98887.66;1773310;81;21027;-78
2020/12/17 06:51:31;;;;;;;137.22;63.65;;;;;;;-1.83;85.88;98887.98;1773233;79;21032;-77
2020/12/17 06:53:57;;;;;;;140.12;69.17;;;;;;;-1.81;85.89;98892.61;1747161;81;23041;-78
2020/12/17 06:56:23;;;;;;;147.30;70.80;;;;;;;-1.85;85.88;98892.16;1770401;79;21644;-77
2020/12/17 06:58:49;;;;;;;154.78;75.50;;;;;;;-1.90;85.62;98889.20;1773198;80;21194;-77
2020/12/17 07:01:26;;;;;;;155.37;76.40;;;;;;;-1.94;85.85;98897.72;1773211;79;20977;-77
2020/12/17 07:03:52;;;;;;;159.80;79.97;;;;;;;-2.02;86.12;98899.94;1773209;81;21127;-78
2020/12/17 07:06:24;;;;;;;182.72;87.02;;;;;;;-2.12;86.70;98900.68;1773136;79;20976;-78
2020/12/17 07:08:55;;;;;;;196.30;89.17;;;;;;;-2.12;86.20;98907.31;1772617;81;21119;-78
2020/12/17 07:11:46;;;;;;;216.85;105.05;;;;;;;-2.13;86.54;98901.19;1744626;81;21198;-78
2020/12/17 07:14:20;;;;;;;199.42;98.58;;;;;;;-2.17;86.72;98905.69;1769819;81;21175;-78
2020/12/17 07:17:01;;;;;;;233.25;106.12;;;;;;;-2.22;86.96;98903.57;1772925;79;21028;-80
2020/12/17 07:19:40;;;;;;;235.68;110.42;;;;;;;-2.22;86.75;98911.53;1773061;79;22030;-79
2020/12/17 07:22:10;;;;;;;223.57;109.67;;;;;;;-2.20;86.53;98918.81;1773027;80;21048;-78
2020/12/17 07:24:46;;;;;;;233.13;112.80;;;;;;;-2.21;86.33;98915.02;1772291;79;21143;-77
2020/12/17 07:27:18;;;;;;;249.45;112.25;;;;;;;-2.22;86.44;98919.50;1773142;81;21155;-77
2020/12/17 07:30:03;;;;;;;242.82;111.85;;;;;;;-2.19;86.23;98923.63;1769566;79;21115;-78
2020/12/17 07:32:34;;;;;;;492.30;260.50;;;;;;;-2.19;86.01;98923.12;1773122;80;21457;-79
2020/12/17 07:35:07;;;;;;;233.65;108.32;;;;;;;-2.17;86.54;98926.42;1744856;81;21495;-77
2020/12/17 07:37:37;;;;;;;220.02;97.62;;;;;;;-2.13;86.05;98926.91;1771865;80;21115;-79
2020/12/17 07:40:19;;;;;;;244.65;119.02;;;;;;;-2.18;85.88;98925.27;1745116;81;21587;-78
2020/12/17 07:43:15;;;;;;;247.40;116.28;;;;;;;-2.21;86.44;98928.30;1773180;81;21115;-76
2020/12/17 07:45:53;;;;;;;234.75;106.92;;;;;;;-2.20;86.58;98932.09;1745204;81;21052;-78
2020/12/17 07:48:54;;;;;;;225.55;101.45;;;;;;;-2.13;86.51;98937.03;1773251;80;21154;-77
2020/12/17 07:51:29;;;;;;;224.75;101.92;;;;;;;-2.10;86.34;98930.53;1773003;79;21051;-78
2020/12/17 07:53:55;;;;;;;206.45;103.20;;;;;;;-2.07;86.38;98932.33;1773376;81;21151;-79
2020/12/17 07:56:21;;;;;;;215.43;100.97;;;;;;;-1.95;86.45;98932.76;1773305;79;21045;-78
2020/12/17 07:58:48;;;;;;;213.35;105.07;;;;;;;-1.88;86.10;98928.39;1773350;80;22134;-77
2020/12/17 08:01:14;;;;;;;201.27;95.45;;;;;;;-1.81;85.90;98929.30;1773246;79;21063;-78
2020/12/17 08:03:50;;;;;;;186.90;84.37;;;;;;;-1.79;85.74;98926.49;1744964;81;21520;-80
2020/12/17 08:06:22;;;;;;;167.18;79.82;;;;;;;-1.78;85.60;98923.66;1773229;79;21052;-79
2020/12/17 08:08:57;;;;;;;160.03;78.78;;;;;;;-1.80;85.68;98923.48;1773004;81;21576;-77
2020/12/17 08:11:25;;;;;;;158.35;77.65;;;;;;;-1.79;85.91;98935.29;1772899;79;21821;-78
2020/12/17 08:14:05;;;;;;;156.57;75.92;;;;;;;-1.76;85.67;98927.45;1773197;80;21159;-78
2020/12/17 08:16:31;;;;;;;175.50;84.17;;;;;;;-1.67;85.77;98933.02;1773266;79;21166;-79
2020/12/17 08:18:58;;;;;;;164.72;80.83;;;;;;;-1.59;85.66;98921.50;1747448;81;21187;-79
2020/12/17 08:21:25;;;;;;;157.55;78.02;;;;;;;-1.53;85.65;98926.10;1770406;79;21111;-77
2020/12/17 08:23:50;;;;;;;161.68;82.15;;;;;;;-1.49;85.62;98920.73;1773128;81;21261;-79
2020/12/17 08:26:20;;;;;;;161.18;80.28;;;;;;;-1.49;85.45;98924.22;1744852;81;21190;-77
2020/12/17 08:28:47;;;;;;;160.30;80.42;;;;;;;-1.44;85.48;98923.69;1772674;81;21464;-77
2020/12/17 08:31:19;;;;;;;163.40;83.55;;;;;;;-1.39;85.75;98922.62;1773258;79;21388;-80
2020/12/17 08:33:52;;;;;;;184.00;88.37;;;;;;;-1.31;85.74;98919.06;1773362;80;21118;-80
2020/12/17 08:36:23;;;;;;;163.28;80.83;;;;;;;-1.24;85.60;98916.83;1773113;79;22056;-79
2020/12/17 08:39:04;;;;;;;195.68;98.67;;;;;;;-1.16;85.46;98923.89;1773304;80;21535;-79
2020/12/17 08:41:44;;;;;;;274.32;124.47;;;;;;;-1.16;85.72;98918.07;1773345;79;21500;-80
2020/12/17 08:44:11;;;;;;;218.63;104.67;;;;;;;-1.06;85.72;98914.31;1773297;81;21155;-76
2020/12/17 08:46:40;;;;;;;276.20;131.50;;;;;;;-1.01;85.40;98919.92;1773021;79;21052;-77
2020/12/17 08:49:09;;;;;;;171.47;83.40;;;;;;;-0.91;85.63;98911.97;1745092;81;21351;-77
2020/12/17 08:51:36;;;;;;;;;;;;;;;-0.84;85.66;98912.58;1775840;79;21127;-78
2020/12/17 08:54:02;;;;;;;265.12;125.42;;;;;;;-0.78;85.67;98909.15;1738159;81;20601;-76
2020/12/17 08:56:27;;;;;;;222.67;106.75;;;;;;;-0.72;85.76;98909.24;1773164;79;21039;-76
2020/12/17 08:59:01;;;;;;;196.82;94.97;;;;;;;-0.68;85.74;98910.53;1744824;81;21210;-76
2020/12/17 09:01:34;;;;;;;189.25;89.70;;;;;;;-0.61;85.49;98908.75;1770594;79;22409;-79
2020/12/17 09:04:10;;;;;;;159.07;77.82;;;;;;;-0.55;85.67;98906.38;1770697;81;21119;-77
2020/12/17 09:06:37;;;;;;;157.37;77.78;;;;;;;-0.44;85.54;98906.70;1773254;79;21047;-77
2020/12/17 09:09:24;;;;;;;160.52;82.08;;;;;;;-0.35;85.77;98906.08;1773259;81;21178;-77
2020/12/17 09:11:47;;;;;;;163.43;83.12;;;;;;;-0.34;85.85;98910.42;1772520;81;21179;-79
2020/12/17 09:14:19;;;;;;;151.47;81.92;;;;;;;-0.21;85.70;98905.73;1745152;81;23011;-77
2020/12/17 09:16:41;;;;;;;178.60;92.13;;;;;;;-0.12;85.69;98901.92;1772526;79;21643;-79
2020/12/17 09:19:10;;;;;;;173.30;89.30;;;;;;;-0.01;85.71;98903.56;1744972;81;21232;-77
2020/12/17 09:21:57;;;;;;;144.67;79.37;;;;;;;0.09;85.57;98897.95;1773350;79;21040;-77
2020/12/17 09:24:37;;;;;;;127.12;66.70;;;;;;;0.19;85.54;98897.62;1773203;81;21178;-78
2020/12/17 09:27:28;;;;;;;126.20;66.33;;;;;;;0.31;85.58;98901.91;1770520;80;21821;-77
2020/12/17 09:30:14;;;;;;;148.68;76.40;;;;;;;0.46;85.65;98890.66;1772983;79;21079;-78
2020/12/17 09:32:53;;;;;;;139.97;71.97;;;;;;;0.61;85.37;98895.39;1773198;80;21060;-79
2020/12/17 09:35:20;;;;;;;135.43;74.95;;;;;;;0.73;85.41;98891.16;1773342;79;21048;-77
2020/12/17 09:38:02;;;;;;;167.68;87.90;;;;;;;0.88;85.33;98895.56;1773227;80;21032;-77
2020/12/17 09:40:28;;;;;;;135.93;73.17;;;;;;;0.94;84.73;98888.94;1773321;79;21167;-80
2020/12/17 09:43:09;;;;;;;138.52;76.55;;;;;;;0.96;84.72;98892.23;1772875;81;21158;-80
2020/12/17 09:45:41;;;;;;;148.38;75.17;;;;;;;1.03;84.76;98886.93;1773255;79;21159;-79
2020/12/17 09:48:23;;;;;;;171.85;86.70;;;;;;;1.11;84.75;98887.59;1773155;81;21039;-80
2020/12/17 09:51:02;;;;;;;156.80;81.20;;;;;;;1.20;84.54;98889.58;1744803;81;21124;-78
2020/12/17 09:53:33;;;;;;;186.67;101.45;;;;;;;1.28;84.05;98880.08;1773280;80;21460;-77
2020/12/17 09:55:59;;;;;;;284.92;152.82;;;;;;;1.38;84.17;98885.03;1747144;81;21114;-78
2020/12/17 09:58:25;;;;;;;183.12;100.87;;;;;;;1.46;84.09;98880.86;1773175;80;21027;-77
2020/12/17 10:00:53;;;;;;;161.20;86.08;;;;;;;1.53;84.02;98872.33;1773196;79;20925;-79
2020/12/17 10:03:19;;;;;;;201.35;114.62;;;;;;;1.58;83.30;98871.73;1773175;81;21028;-77
2020/12/17 10:05:45;;;;;;;160.45;89.15;;;;;;;1.61;83.59;98867.31;1773226;79;21257;-78
2020/12/17 10:08:10;;;;;;;133.52;71.92;;;;;;;1.66;83.19;98867.55;1773134;81;20905;-78
2020/12/17 10:10:37;;;;;;;138.72;76.90;;;;;;;1.71;82.87;98869.12;1773192;79;21007;-77
2020/12/17 10:13:06;;;;;;;147.02;80.40;;;;;;;1.75;83.07;98866.85;1773197;81;21614;-78
2020/12/17 10:15:32;;;;;;;135.18;74.15;;;;;;;1.82;83.06;98871.70;1773337;79;26705;-78
2020/12/17 10:17:57;;;;;;;119.65;61.98;;;;;;;1.91;83.05;98875.83;1773233;80;21807;-77
2020/12/17 10:20:23;;;;;;;103.78;51.90;;;;;;;1.98;83.10;98872.14;1773223;79;20948;-78
2020/12/17 10:22:50;;;;;;;115.08;64.87;;;;;;;2.08;83.26;98871.73;1773249;81;20918;-79
2020/12/17 10:25:16;;;;;;;118.93;64.92;;;;;;;2.15;83.11;98867.74;1773146;79;21044;-77
2020/12/17 10:27:42;;;;;;;119.08;63.00;;;;;;;2.18;82.69;98866.80;1773152;81;21104;-78
2020/12/17 10:30:08;;;;;;;112.25;58.63;;;;;;;2.20;83.03;98870.60;1773213;79;21106;-77
2020/12/17 10:32:34;;;;;;;114.15;62.53;;;;;;;2.23;82.48;98871.55;1773138;81;20913;-79
2020/12/17 10:35:00;;;;;;;105.65;53.00;;;;;;;2.19;82.23;98869.78;1773200;79;21035;-77
2020/12/17 10:37:30;;;;;;;133.63;69.37;;;;;;;2.16;81.58;98873.39;1773046;80;20976;-77
2020/12/17 10:39:56;;;;;;;118.70;65.65;;;;;;;2.18;82.17;98875.34;1744879;81;21115;-79
2020/12/17 10:42:22;;;;;;;106.05;55.88;;;;;;;2.17;82.02;98871.84;1770398;81;21954;-78
2020/12/17 10:44:49;;;;;;;100.27;50.23;;;;;;;2.16;82.08;98865.37;1772788;79;21259;-79
2020/12/17 10:47:21;;;;;;;87.75;44.80;;;;;;;2.18;81.78;98869.99;1773169;80;21115;-79
2020/12/17 10:49:47;;;;;;;107.40;52.95;;;;;;;2.17;81.33;98870.52;1745647;79;21615;-77
2020/12/17 10:52:13;;;;;;;90.85;46.30;;;;;;;2.35;82.08;98868.55;1773182;81;20941;-79
2020/12/17 10:54:39;;;;;;;92.82;47.88;;;;;;;2.38;80.74;98867.31;1773223;79;21485;-79
2020/12/17 10:57:05;;;;;;;84.42;46.28;;;;;;;2.38;80.56;98868.13;1773023;80;20925;-78
2020/12/17 10:59:31;;;;;;;86.00;47.58;;;;;;;2.42;80.90;98866.70;1773210;79;21710;-77
2020/12/17 11:01:57;;;;;;;95.42;49.60;;;;;;;2.36;80.66;98870.20;1773181;80;20898;-78
2020/12/17 11:04:28;;;;;;;96.50;50.38;;;;;;;2.46;81.01;98867.10;1744874;81;21667;-77
2020/12/17 11:06:57;;;;;;;74.57;39.27;;;;;;;2.50;80.92;98869.17;1772544;81;21544;-78
2020/12/17 11:09:25;;;;;;;89.58;47.25;;;;;;;2.41;80.66;98875.77;1743626;81;21591;-78
2020/12/17 11:11:51;;;;;;;102.73;49.97;;;;;;;2.44;80.35;98883.88;1773414;80;21413;-77
2020/12/17 11:14:17;;;;;;;99.00;50.40;;;;;;;2.46;80.43;98881.82;1773347;81;21195;-78
2020/12/17 11:16:43;;;;;;;105.63;55.43;;;;;;;2.51;80.63;98881.52;1773308;79;21552;-78
2020/12/17 11:19:09;;;;;;;98.20;50.60;;;;;;;2.50;80.42;98881.22;1773371;81;21211;-78
2020/12/17 11:21:35;;;;;;;92.42;53.78;;;;;;;2.55;80.67;98876.05;1773312;79;20921;-78